Commerce charter Township, MI

2:45 PM EDT on September 03, 2015 (GMT -0400)
Lower Straits Lake | | Change Station
CLOSE
Current Station
Personal Weather Station
Location: Commerce Township, MI
Elevation: 938 ft
Nearby Weather Stations

Elev 938 ft 42.59 °N, 83.47 °W | Updated 3 minutes ago

Overcast
Overcast
70.9 °F
Feels Like 70 °F
N
0.0
Wind Variable Wind from NW
Gusts 0.0 mph

Today
High -- | Low -- °F
--% Chance of Precip.
Yesterday
High -- | Low -- °F
Precip. -- in
7:00 AM 8:05 PM
Waning Gibbous, 68% visible
Pressure 29.95 in
Visibility 10.0 miles
Clouds Few 1900 ft
Scattered Clouds 3100 ft
Mostly Cloudy 6000 ft
Mostly Cloudy 14000 ft
Overcast 28000 ft
Heat Index 70 °F
Dew Point 65 °F
Humidity 83%
Rainfall 0.33 in
Snow Depth Not available.
UV 2 out of 12
Pollen 9.70 out of 12
Air Quality Not available.
Flu Activity Not available.
SPECI KPTK 031834Z 08003KT 10SM -TSRA FEW019 SCT031CB BKN060 BKN140 OVC280 22/20 A2995 RMK AO2 TSE20B33 OCNL LTGIC E TS E MOV E P0015 T02170200 $
Pressure 29.95 in
Visibility 10.0 miles
Clouds Few 1900 ft
Scattered Clouds 3100 ft
Mostly Cloudy 6000 ft
Mostly Cloudy 14000 ft
Overcast 28000 ft
Heat Index 70 °F
Dew Point 65 °F
Humidity 83%
Rainfall 0.33 in
Snow Depth Not available.
UV 2 out of 12
Pollen 9.70 out of 12
Air Quality Not available.
Flu Activity Not available.
SPECI KPTK 031834Z 08003KT 10SM -TSRA FEW019 SCT031CB BKN060 BKN140 OVC280 22/20 A2995 RMK AO2 TSE20B33 OCNL LTGIC E TS E MOV E P0015 T02170200 $

10-Day Weather Forecast

×

Almanac

Astronomy

Sep. 03, 2015 Rise Set
Actual Time
Civil Twilight
Nautical Twilight
Astronomical Twilight
Moon
Length of Visible Light
Length of Day
Tomorrow will be .
, % of the Moon is Illuminated

Today's Extremes

State Highs State Lows

Community

WunderPhotos

Upload Photos

1,852,001 photos uploaded!

WunderBlogs® & News

Nearby

Air Quality

  Air Quality AQ Index Pollutant
Not available.

Snow Depth

Station Depth Elevation

Earthquake Activity

City Distance Mag. Time & Date
Minimum magnitude displayed is 2.5.

Coastal Water Temperatures

Place Temperature

Stations

Nearby Weather Stations

Station Location Temp. Windchill Dew Point Humidity Wind Precip. Elev Updated Type